sensor_id;sensor_type;location;lat;lon;timestamp;pressure;altitude;pressure_sealevel;temperature;humidity
57894;BME280;43710;47.460;19.034;2023-03-01T05:00:54;101474.37;;;8.18;58.40
57894;BME280;43710;47.460;19.034;2023-03-01T05:03:57;101474.37;;;8.18;58.40
57894;BME280;43710;47.460;19.034;2023-03-01T05:07:04;101496.47;;;7.90;81.94
57894;BME280;43710;47.460;19.034;2023-03-01T05:10:07;101486.25;;;7.99;62.69
57894;BME280;43710;47.460;19.034;2023-03-01T05:13:10;101490.91;;;7.92;69.46
57894;BME280;43710;47.460;19.034;2023-03-01T05:16:12;101492.03;;;8.08;77.51
57894;BME280;43710;47.460;19.034;2023-03-01T05:19:14;101496.16;;;8.39;83.33
57894;BME280;43710;47.460;19.034;2023-03-01T05:22:25;101496.75;;;8.17;73.65
57894;BME280;43710;47.460;19.034;2023-03-01T05:25:27;101490.13;;;8.20;63.10
57894;BME280;43710;47.460;19.034;2023-03-01T05:28:35;101500.75;;;8.15;75.52
57894;BME280;43710;47.460;19.034;2023-03-01T05:31:37;101502.81;;;8.24;65.06
57894;BME280;43710;47.460;19.034;2023-03-01T05:34:40;101492.41;;;7.99;59.75
57894;BME280;43710;47.460;19.034;2023-03-01T05:37:44;101496.12;;;7.98;66.16
57894;BME280;43710;47.460;19.034;2023-03-01T05:40:48;101500.41;;;8.11;63.92
57894;BME280;43710;47.460;19.034;2023-03-01T05:43:50;101487.44;;;7.91;65.17
57894;BME280;43710;47.460;19.034;2023-03-01T05:46:53;101491.72;;;7.81;57.55
57894;BME280;43710;47.460;19.034;2023-03-01T05:49:55;101497.87;;;7.81;61.51
57894;BME280;43710;47.460;19.034;2023-03-01T05:52:59;101499.00;;;8.09;59.16
57894;BME280;43710;47.460;19.034;2023-03-01T05:56:04;101500.41;;;8.11;72.75
57894;BME280;43710;47.460;19.034;2023-03-01T05:59:08;101501.94;;;7.95;59.95
57894;BME280;43710;47.460;19.034;2023-03-01T06:02:10;101508.88;;;7.96;82.00
57894;BME280;43710;47.460;19.034;2023-03-01T06:05:13;101509.19;;;8.23;76.98
57894;BME280;43710;47.460;19.034;2023-03-01T06:08:15;101508.44;;;7.88;57.92
57894;BME280;43710;47.460;19.034;2023-03-01T06:11:18;101508.44;;;7.99;59.75
57894;BME280;43710;47.460;19.034;2023-03-01T06:14:22;101506.22;;;8.08;67.46
57894;BME280;43710;47.460;19.034;2023-03-01T06:17:25;101505.22;;;8.38;62.60
57894;BME280;43710;47.460;19.034;2023-03-01T06:20:28;101512.66;;;8.24;70.25
57894;BME280;43710;47.460;19.034;2023-03-01T06:23:31;101510.59;;;8.14;66.52
57894;BME280;43710;47.460;19.034;2023-03-01T06:26:34;101507.47;;;8.58;75.32
57894;BME280;43710;47.460;19.034;2023-03-01T06:29:36;101514.03;;;8.27;65.50
57894;BME280;43710;47.460;19.034;2023-03-01T06:32:38;101509.78;;;8.54;70.01
57894;BME280;43710;47.460;19.034;2023-03-01T06:35:44;101517.19;;;8.64;78.14
57894;BME280;43710;47.460;19.034;2023-03-01T06:38:46;101526.53;;;8.61;78.47
57894;BME280;43710;47.460;19.034;2023-03-01T06:41:48;101529.59;;;8.70;69.04
57894;BME280;43710;47.460;19.034;2023-03-01T06:44:50;101528.13;;;8.62;60.11
57894;BME280;43710;47.460;19.034;2023-03-01T06:48:01;101534.75;;;8.60;64.91
57894;BME280;43710;47.460;19.034;2023-03-01T06:51:04;101531.47;;;8.69;63.69
57894;BME280;43710;47.460;19.034;2023-03-01T06:54:08;101530.28;;;8.37;59.21
57894;BME280;43710;47.460;19.034;2023-03-01T06:57:10;101534.63;;;8.26;62.96
57894;BME280;43710;47.460;19.034;2023-03-01T07:00:13;101536.28;;;8.56;63.15
57894;BME280;43710;47.460;19.034;2023-03-01T07:03:15;101528.66;;;8.36;67.40
57894;BME280;43710;47.460;19.034;2023-03-01T07:06:18;101535.50;;;8.43;62.31
57894;BME280;43710;47.460;19.034;2023-03-01T07:09:22;101529.34;;;8.55;62.11
57894;BME280;43710;47.460;19.034;2023-03-01T07:12:25;101528.69;;;8.24;56.66
57894;BME280;43710;47.460;19.034;2023-03-01T07:15:28;101529.13;;;8.44;72.04
57894;BME280;43710;47.460;19.034;2023-03-01T07:18:31;101526.34;;;8.39;58.14
57894;BME280;43710;47.460;19.034;2023-03-01T07:21:33;101531.25;;;8.19;73.51
57894;BME280;43710;47.460;19.034;2023-03-01T07:24:36;101531.34;;;8.36;57.80
57894;BME280;43710;47.460;19.034;2023-03-01T07:27:38;101526.47;;;8.33;57.84
57894;BME280;43710;47.460;19.034;2023-03-01T07:30:40;101525.59;;;8.56;66.43
57894;BME280;43710;47.460;19.034;2023-03-01T07:33:42;101524.41;;;8.63;79.58
57894;BME280;43710;47.460;19.034;2023-03-01T07:36:45;101521.78;;;8.52;64.39
57894;BME280;43710;47.460;19.034;2023-03-01T07:39:47;101527.56;;;8.60;60.51
57894;BME280;43710;47.460;19.034;2023-03-01T07:42:55;101523.94;;;8.66;63.27
57894;BME280;43710;47.460;19.034;2023-03-01T07:46:01;101524.87;;;8.60;55.62
57894;BME280;43710;47.460;19.034;2023-03-01T07:49:04;101529.06;;;8.68;58.30
57894;BME280;43710;47.460;19.034;2023-03-01T07:52:10;101525.59;;;8.84;68.47
57894;BME280;43710;47.460;19.034;2023-03-01T07:55:14;101521.84;;;8.68;54.96
57894;BME280;43710;47.460;19.034;2023-03-01T07:58:16;101512.94;;;8.80;60.13
57894;BME280;43710;47.460;19.034;2023-03-01T08:01:20;101512.28;;;8.73;73.55
57894;BME280;43710;47.460;19.034;2023-03-01T08:04:23;101510.06;;;9.15;81.01
57894;BME280;43710;47.460;19.034;2023-03-01T08:07:28;101510.22;;;9.25;80.25
57894;BME280;43710;47.460;19.034;2023-03-01T08:10:31;101516.81;;;9.01;54.46
57894;BME280;43710;47.460;19.034;2023-03-01T08:13:33;101514.19;;;8.89;66.47
57894;BME280;43710;47.460;19.034;2023-03-01T08:16:36;101523.31;;;8.76;55.04
57894;BME280;43710;47.460;19.034;2023-03-01T08:19:39;101508.03;;;9.05;74.22
57894;BME280;43710;47.460;19.034;2023-03-01T08:22:41;101502.94;;;9.21;63.20
57894;BME280;43710;47.460;19.034;2023-03-01T08:25:43;101508.31;;;9.21;67.98
57894;BME280;43710;47.460;19.034;2023-03-01T08:28:47;101501.78;;;9.33;62.44
57894;BME280;43710;47.460;19.034;2023-03-01T08:31:50;101499.69;;;9.35;64.41
57894;BME280;43710;47.460;19.034;2023-03-01T08:34:53;101497.81;;;9.36;66.99
57894;BME280;43710;47.460;19.034;2023-03-01T08:37:55;101484.75;;;9.23;52.54
57894;BME280;43710;47.460;19.034;2023-03-01T08:41:00;101495.31;;;9.29;61.39
57894;BME280;43710;47.460;19.034;2023-03-01T08:44:03;101492.62;;;9.29;62.52
57894;BME280;43710;47.460;19.034;2023-03-01T08:47:05;101491.50;;;9.25;54.32
57894;BME280;43710;47.460;19.034;2023-03-01T08:50:08;101491.16;;;9.38;66.66
57894;BME280;43710;47.460;19.034;2023-03-01T08:53:11;101485.66;;;9.28;72.01
57894;BME280;43710;47.460;19.034;2023-03-01T08:56:14;101482.25;;;9.33;58.69
57894;BME280;43710;47.460;19.034;2023-03-01T08:59:18;101474.88;;;9.06;52.62
57894;BME280;43710;47.460;19.034;2023-03-01T09:02:20;101469.19;;;9.20;55.04
57894;BME280;43710;47.460;19.034;2023-03-01T09:05:23;101459.78;;;9.17;56.62
57894;BME280;43710;47.460;19.034;2023-03-01T09:08:25;101472.66;;;9.54;61.85
57894;BME280;43710;47.460;19.034;2023-03-01T09:11:28;101480.63;;;9.49;56.82
57894;BME280;43710;47.460;19.034;2023-03-01T09:14:30;101465.31;;;9.66;57.16
57894;BME280;43710;47.460;19.034;2023-03-01T09:17:32;101459.72;;;9.68;59.64
57894;BME280;43710;47.460;19.034;2023-03-01T09:20:35;101457.25;;;9.83;72.57
57894;BME280;43710;47.460;19.034;2023-03-01T09:23:39;101448.34;;;9.77;60.94
57894;BME280;43710;47.460;19.034;2023-03-01T09:26:42;101441.75;;;9.85;60.16
57894;BME280;43710;47.460;19.034;2023-03-01T09:29:45;101435.25;;;10.03;62.14
57894;BME280;43710;47.460;19.034;2023-03-01T09:32:47;101438.75;;;9.81;52.40
57894;BME280;43710;47.460;19.034;2023-03-01T09:35:49;101439.56;;;9.82;53.01
57894;BME280;43710;47.460;19.034;2023-03-01T09:38:54;101431.84;;;9.63;72.56
57894;BME280;43710;47.460;19.034;2023-03-01T09:42:02;101423.06;;;9.90;59.81
57894;BME280;43710;47.460;19.034;2023-03-01T09:45:11;101417.06;;;9.83;60.80
57894;BME280;43710;47.460;19.034;2023-03-01T09:48:20;101418.03;;;10.21;81.16
57894;BME280;43710;47.460;19.034;2023-03-01T09:51:30;101415.56;;;10.14;63.92
57894;BME280;43710;47.460;19.034;2023-03-01T09:54:33;101411.12;;;10.03;53.00
57894;BME280;43710;47.460;19.034;2023-03-01T10:00:39;101405.53;;;10.04;56.64
57894;BME280;43710;47.460;19.034;2023-03-01T10:03:58;101405.81;;;9.81;67.63
57894;BME280;43710;47.460;19.034;2023-03-01T10:10:23;101409.19;;;10.20;58.80
57894;BME280;43710;47.460;19.034;2023-03-01T10:17:20;101403.94;;;10.57;67.86
57894;BME280;43710;47.460;19.034;2023-03-01T10:20:28;101386.75;;;10.26;51.81
57894;BME280;43710;47.460;19.034;2023-03-01T10:23:34;101383.72;;;10.18;69.94
57894;BME280;43710;47.460;19.034;2023-03-01T10:30:09;101370.69;;;10.26;53.96
57894;BME280;43710;47.460;19.034;2023-03-01T10:33:32;101366.16;;;10.27;62.44
57894;BME280;43710;47.460;19.034;2023-03-01T10:36:39;101363.44;;;10.54;64.57
57894;BME280;43710;47.460;19.034;2023-03-01T10:43:05;101364.63;;;10.68;56.94
57894;BME280;43710;47.460;19.034;2023-03-01T10:46:35;101356.41;;;10.80;57.01
57894;BME280;43710;47.460;19.034;2023-03-01T10:49:38;101344.31;;;10.77;60.89
57894;BME280;43710;47.460;19.034;2023-03-01T10:52:41;101341.28;;;10.69;68.17
57894;BME280;43710;47.460;19.034;2023-03-01T10:55:43;101336.94;;;10.63;49.81
57894;BME280;43710;47.460;19.034;2023-03-01T10:59:01;101328.81;;;10.47;68.21
57894;BME280;43710;47.460;19.034;2023-03-01T11:02:22;101319.31;;;10.72;62.90
57894;BME280;43710;47.460;19.034;2023-03-01T11:05:28;101318.22;;;10.68;57.55
57894;BME280;43710;47.460;19.034;2023-03-01T11:11:41;101314.38;;;10.96;53.31
57894;BME280;43710;47.460;19.034;2023-03-01T11:14:51;101308.28;;;10.63;49.46
57894;BME280;43710;47.460;19.034;2023-03-01T11:17:56;101307.84;;;10.81;58.05
57894;BME280;43710;47.460;19.034;2023-03-01T11:21:15;101301.75;;;10.91;52.06
57894;BME280;43710;47.460;19.034;2023-03-01T11:24:19;101300.56;;;11.24;57.38
57894;BME280;43710;47.460;19.034;2023-03-01T11:27:31;101298.66;;;11.15;53.57
57894;BME280;43710;47.460;19.034;2023-03-01T11:34:14;101293.06;;;11.26;52.20
57894;BME280;43710;47.460;19.034;2023-03-01T11:37:26;101299.13;;;11.01;52.68
57894;BME280;43710;47.460;19.034;2023-03-01T11:40:42;101296.81;;;11.25;60.90
57894;BME280;43710;47.460;19.034;2023-03-01T11:43:57;101285.78;;;11.17;51.63
57894;BME280;43710;47.460;19.034;2023-03-01T11:50:29;101289.84;;;11.24;55.17
57894;BME280;43710;47.460;19.034;2023-03-01T12:00:53;101271.50;;;11.94;59.74
57894;BME280;43710;47.460;19.034;2023-03-01T12:14:31;101262.06;;;11.76;50.91
57894;BME280;43710;47.460;19.034;2023-03-01T12:18:08;101257.56;;;12.03;60.80
57894;BME280;43710;47.460;19.034;2023-03-01T12:34:55;101222.88;;;12.27;54.06
57894;BME280;43710;47.460;19.034;2023-03-01T12:38:33;101224.75;;;12.26;49.40
57894;BME280;43710;47.460;19.034;2023-03-01T12:41:54;101220.19;;;12.27;52.60
57894;BME280;43710;47.460;19.034;2023-03-01T12:52:09;101210.22;;;12.12;48.95
57894;BME280;43710;47.460;19.034;2023-03-01T12:55:29;101224.22;;;12.29;61.89
57894;BME280;43710;47.460;19.034;2023-03-01T13:15:49;101206.72;;;12.21;48.67
57894;BME280;43710;47.460;19.034;2023-03-01T13:19:07;101200.81;;;12.25;59.34
57894;BME280;43710;47.460;19.034;2023-03-01T13:22:31;101191.16;;;12.29;49.23
57894;BME280;43710;47.460;19.034;2023-03-01T13:25:34;101196.22;;;12.45;51.62
57894;BME280;43710;47.460;19.034;2023-03-01T13:34:53;101175.16;;;12.73;57.72
57894;BME280;43710;47.460;19.034;2023-03-01T13:44:42;101162.28;;;12.55;48.54
57894;BME280;43710;47.460;19.034;2023-03-01T13:47:46;101162.09;;;12.31;46.52
57894;BME280;43710;47.460;19.034;2023-03-01T13:50:55;101155.59;;;12.52;64.94
57894;BME280;43710;47.460;19.034;2023-03-01T13:53:59;101147.16;;;12.74;56.98
57894;BME280;43710;47.460;19.034;2023-03-01T13:57:02;101143.41;;;12.70;65.67
57894;BME280;43710;47.460;19.034;2023-03-01T14:00:05;101144.81;;;12.57;46.63
57894;BME280;43710;47.460;19.034;2023-03-01T14:03:19;101144.81;;;12.57;47.82
57894;BME280;43710;47.460;19.034;2023-03-01T14:06:32;101141.03;;;12.68;62.15
57894;BME280;43710;47.460;19.034;2023-03-01T14:09:41;101139.88;;;12.85;61.49
57894;BME280;43710;47.460;19.034;2023-03-01T14:16:04;101124.09;;;12.58;47.64
57894;BME280;43710;47.460;19.034;2023-03-01T14:19:18;101121.50;;;12.32;48.60
57894;BME280;43710;47.460;19.034;2023-03-01T14:22:35;101115.81;;;12.44;52.66
57894;BME280;43710;47.460;19.034;2023-03-01T14:25:46;101115.25;;;12.52;47.78
57894;BME280;43710;47.460;19.034;2023-03-01T14:28:50;101119.00;;;12.51;57.94
57894;BME280;43710;47.460;19.034;2023-03-01T14:31:53;101106.91;;;12.59;53.83
57894;BME280;43710;47.460;19.034;2023-03-01T14:34:57;101104.13;;;12.74;51.81
57894;BME280;43710;47.460;19.034;2023-03-01T14:37:59;101092.31;;;12.75;53.78
57894;BME280;43710;47.460;19.034;2023-03-01T14:41:06;101094.19;;;12.69;55.00
57894;BME280;43710;47.460;19.034;2023-03-01T14:44:18;101086.75;;;12.51;46.51
57894;BME280;43710;47.460;19.034;2023-03-01T14:47:30;101086.38;;;12.68;50.72
57894;BME280;43710;47.460;19.034;2023-03-01T14:50:34;101078.13;;;12.54;49.39
57894;BME280;43710;47.460;19.034;2023-03-01T14:53:37;101086.88;;;12.80;60.33
57894;BME280;43710;47.460;19.034;2023-03-01T14:56:53;101082.53;;;12.89;53.52
57894;BME280;43710;47.460;19.034;2023-03-01T15:00:02;101092.00;;;12.82;49.10
57894;BME280;43710;47.460;19.034;2023-03-01T15:06:26;101077.41;;;12.88;64.04
57894;BME280;43710;47.460;19.034;2023-03-01T15:09:36;101078.00;;;12.80;50.12
57894;BME280;43710;47.460;19.034;2023-03-01T15:12:40;101075.78;;;12.92;54.11
57894;BME280;43710;47.460;19.034;2023-03-01T15:15:44;101076.59;;;12.92;49.21
57894;BME280;43710;47.460;19.034;2023-03-01T15:18:51;101076.66;;;12.82;54.81
57894;BME280;43710;47.460;19.034;2023-03-01T15:21:55;101075.91;;;12.72;48.70
57894;BME280;43710;47.460;19.034;2023-03-01T15:24:57;101073.41;;;12.80;51.10
57894;BME280;43710;47.460;19.034;2023-03-01T15:28:01;101077.78;;;12.71;48.64
57894;BME280;43710;47.460;19.034;2023-03-01T15:31:19;101080.75;;;12.64;53.32
57894;BME280;43710;47.460;19.034;2023-03-01T15:34:26;101078.59;;;12.72;53.89
57894;BME280;43710;47.460;19.034;2023-03-01T15:37:45;101076.50;;;12.58;51.78
57894;BME280;43710;47.460;19.034;2023-03-01T15:40:51;101078.00;;;12.75;49.85
57894;BME280;43710;47.460;19.034;2023-03-01T15:43:54;101080.00;;;12.59;49.39
57894;BME280;43710;47.460;19.034;2023-03-01T15:46:58;101075.44;;;12.54;53.03
57894;BME280;43710;47.460;19.034;2023-03-01T15:50:00;101077.22;;;12.74;62.74
57894;BME280;43710;47.460;19.034;2023-03-01T15:53:06;101074.25;;;12.76;50.86
57894;BME280;43710;47.460;19.034;2023-03-01T15:56:10;101073.53;;;12.65;54.76
57894;BME280;43710;47.460;19.034;2023-03-01T15:59:15;101079.75;;;12.55;55.33
57894;BME280;43710;47.460;19.034;2023-03-01T16:02:17;101074.88;;;12.57;57.28
57894;BME280;43710;47.460;19.034;2023-03-01T16:05:28;101079.50;;;12.52;58.50
57894;BME280;43710;47.460;19.034;2023-03-01T16:08:32;101087.87;;;12.45;51.16
57894;BME280;43710;47.460;19.034;2023-03-01T16:11:35;101090.28;;;12.41;51.28
57894;BME280;43710;47.460;19.034;2023-03-01T16:14:38;101089.81;;;12.24;49.38
57894;BME280;43710;47.460;19.034;2023-03-01T16:17:40;101090.34;;;12.26;56.03
57894;BME280;43710;47.460;19.034;2023-03-01T16:20:43;101097.09;;;12.13;52.15
57894;BME280;43710;47.460;19.034;2023-03-01T16:23:45;101088.22;;;12.08;50.05
57894;BME280;43710;47.460;19.034;2023-03-01T16:26:48;101097.66;;;11.95;50.05
57894;BME280;43710;47.460;19.034;2023-03-01T16:29:50;101096.34;;;11.87;50.02
57894;BME280;43710;47.460;19.034;2023-03-01T16:32:53;101110.56;;;11.77;51.19
57894;BME280;43710;47.460;19.034;2023-03-01T16:35:55;101099.84;;;11.72;50.82
57894;BME280;43710;47.460;19.034;2023-03-01T16:38:59;101097.94;;;11.58;50.84
57894;BME280;43710;47.460;19.034;2023-03-01T16:42:02;101102.50;;;11.52;57.82
